Albany, Minnesota
Current Conditions -  °F | °C
As of 6:12 AM on Monday 26 Jan 2015 (Local Time) from KD39 Reporting Station
Broken Clouds Broken Clouds  
Wind Chill: 26°   Ceiling: 2200
Heat Index: 32°   Visibility: 10mi
Dew Point: 29°   Wind: 6mph
Humidity: 91%   Direction: 250°WSW
Pressure: 29.65"   Gusts: NA
Location:  45.63°N, 94.57°W
Report Text: KD39 261212Z AUTO 25005KT 10SM BKN022 00/M01 A2965 RMK AO2 T10011014
Loading
Personal Weather Stations






























Interactive Weather Map New forecast layout! Learn more

10-Day Weather Forecast

Advertisements
Track Severe Weather on mobile